Time;durP1;ratioP1;P1;durP2;ratioP2;P2;SDS_P1;SDS_P2;PMS_P1;PMS_P2;Temp;Humidity;BMP_temperature;BMP_pressure;BME280_temperature;BME280_humidity;BME280_pressure;Samples;Min_cycle;Max_cycle;Signal;HPM_P1;HPM_P2
2022/02/04 00:21:45;;;;;;;12.02;9.00;;;6.60;99.90;;;;;;5030349;28;20059;-73
2022/02/04 00:23:26;;;;;;;13.98;9.82;;;6.60;99.90;;;;;;5032501;28;20506;-73
2022/02/04 00:26:56;;;;;;;16.52;10.48;;;6.60;99.90;;;;;;5029237;28;20516;-73
2022/02/04 00:33:43;;;;;;;15.38;10.60;;;6.60;99.90;;;;;;5030179;28;20506;-74
2022/02/04 00:36:16;;;;;;;16.55;10.77;;;6.60;99.90;;;;;;5029074;28;20183;-74
2022/02/04 00:38:45;;;;;;;19.40;10.63;;;6.60;99.90;;;;;;5030090;28;20517;-74
2022/02/04 00:41:14;;;;;;;15.77;11.13;;;6.60;99.90;;;;;;5029057;28;20477;-74
2022/02/04 00:43:40;;;;;;;14.80;10.43;;;6.60;99.90;;;;;;5029408;28;20401;-73
2022/02/04 00:46:13;;;;;;;16.85;10.23;;;6.60;99.90;;;;;;5027764;28;20017;-73
2022/02/04 00:51:19;;;;;;;14.93;10.75;;;6.70;99.90;;;;;;5027951;28;20032;-74
2022/02/04 00:54:39;;;;;;;16.45;10.85;;;6.60;99.90;;;;;;5030162;28;20018;-74
2022/02/04 01:26:14;;;;;;;17.40;12.00;;;6.60;99.90;;;;;;5028914;28;20032;-73
2022/02/04 01:28:43;;;;;;;15.90;11.07;;;6.60;99.90;;;;;;5028926;28;20069;-73
2022/02/04 01:31:12;;;;;;;16.90;11.57;;;6.60;99.90;;;;;;5028501;28;20036;-73
2022/02/04 01:33:38;;;;;;;16.52;11.25;;;6.60;99.90;;;;;;5028340;28;20422;-73
2022/02/04 01:36:03;;;;;;;;;;;6.60;99.90;;;;;;5028359;28;20060;-73
2022/02/04 01:38:30;;;;;;;18.48;11.35;;;6.50;99.90;;;;;;5028883;28;19913;-73
2022/02/04 01:40:56;;;;;;;14.40;10.70;;;6.50;99.90;;;;;;5028649;28;20176;-73
2022/02/04 01:43:23;;;;;;;15.77;11.68;;;6.50;99.90;;;;;;5029795;28;20033;-73
2022/02/04 01:45:54;;;;;;;17.70;11.90;;;6.60;99.90;;;;;;5028978;28;20481;-73
2022/02/04 01:48:20;;;;;;;20.55;11.77;;;6.50;99.90;;;;;;5029448;28;20026;-73
2022/02/04 01:50:46;;;;;;;;;;;6.50;99.90;;;;;;5029341;28;20037;-73
2022/02/04 01:53:14;;;;;;;17.33;11.02;;;6.50;99.90;;;;;;5028460;28;19909;-73
2022/02/04 01:55:44;;;;;;;18.60;12.43;;;6.50;99.90;;;;;;5028768;28;20098;-73
2022/02/04 01:58:11;;;;;;;14.65;10.45;;;6.60;99.90;;;;;;5028547;28;20332;-73
2022/02/04 02:00:38;;;;;;;14.98;11.05;;;6.50;99.90;;;;;;5028592;28;20079;-73
2022/02/04 02:03:05;;;;;;;14.85;11.20;;;6.50;99.90;;;;;;5026789;28;20084;-73
2022/02/04 02:05:30;;;;;;;16.88;11.80;;;6.50;99.90;;;;;;5029194;28;20022;-74
2022/02/04 02:08:03;;;;;;;;;;;6.50;99.90;;;;;;5029018;28;20033;-73
2022/02/04 02:10:30;;;;;;;21.70;11.77;;;6.50;99.90;;;;;;5026439;28;19917;-73
2022/02/04 02:50:41;;;;;;;20.17;12.60;;;6.40;99.90;;;;;;5027564;28;20037;-73
2022/02/04 02:53:42;;;;;;;19.92;13.00;;;6.40;99.90;;;;;;5026141;28;20030;-73
2022/02/04 02:58:56;;;;;;;20.63;12.65;;;6.40;99.90;;;;;;5025601;28;20049;-73
2022/02/04 03:01:22;;;;;;;18.83;12.18;;;6.40;99.90;;;;;;5026001;28;20029;-73
2022/02/04 03:03:53;;;;;;;16.85;11.35;;;6.40;99.90;;;;;;5026292;28;20116;-74
2022/02/04 03:06:19;;;;;;;19.83;12.57;;;6.40;99.90;;;;;;5023941;28;20038;-73
2022/02/04 03:08:44;;;;;;;15.48;11.73;;;6.40;99.90;;;;;;5026538;28;20024;-73
2022/02/04 03:11:10;;;;;;;18.38;12.43;;;6.40;99.90;;;;;;5026928;28;20037;-73
2022/02/04 03:13:35;;;;;;;17.73;12.35;;;6.40;99.90;;;;;;5026405;28;20030;-73
2022/02/04 03:16:08;;;;;;;18.15;12.20;;;6.40;99.90;;;;;;5026037;28;20037;-73
2022/02/04 03:18:37;;;;;;;17.30;11.15;;;6.40;99.90;;;;;;5027412;28;20030;-73
2022/02/04 03:21:12;;;;;;;16.52;11.20;;;6.40;99.90;;;;;;5026207;28;20512;-73
2022/02/04 03:23:41;;;;;;;17.45;12.07;;;6.40;99.90;;;;;;5027505;28;20406;-73
2022/02/04 03:26:16;;;;;;;15.90;12.00;;;6.40;99.90;;;;;;5026084;28;20033;-73
2022/02/04 03:28:41;;;;;;;19.08;12.55;;;6.40;99.90;;;;;;5030947;28;20056;-73
2022/02/04 03:31:08;;;;;;;;;;;6.40;99.90;;;;;;5029281;28;20013;-73
2022/02/04 03:33:35;;;;;;;17.17;11.45;;;6.50;99.90;;;;;;5031072;28;19916;-73
2022/02/04 03:36:00;;;;;;;17.98;10.88;;;6.50;99.90;;;;;;5029219;28;20524;-73
2022/02/04 03:38:26;;;;;;;;;;;6.50;99.90;;;;;;5031225;28;20037;-73
2022/02/04 03:40:51;;;;;;;15.85;10.60;;;6.50;99.90;;;;;;5029492;28;19920;-73
2022/02/04 03:43:17;;;;;;;21.23;11.32;;;6.40;99.90;;;;;;5031442;28;20025;-73
2022/02/04 03:45:42;;;;;;;15.48;11.00;;;6.50;99.90;;;;;;5028056;28;20037;-73
2022/02/04 03:48:08;;;;;;;18.00;12.18;;;6.50;99.90;;;;;;5029649;28;20587;-73
2022/02/04 03:50:34;;;;;;;18.58;12.27;;;6.50;99.90;;;;;;5029133;28;20033;-73
2022/02/04 03:52:59;;;;;;;17.42;11.50;;;6.50;99.90;;;;;;5030636;28;20120;-73
2022/02/04 03:55:25;;;;;;;18.48;12.55;;;6.50;99.90;;;;;;5030633;28;20410;-73
2022/02/04 03:57:51;;;;;;;;;;;6.50;99.90;;;;;;5029821;28;20037;-73
2022/02/04 04:00:16;;;;;;;21.23;12.82;;;6.50;99.90;;;;;;5027275;28;19956;-73
2022/02/04 04:02:42;;;;;;;;;;;6.50;99.90;;;;;;5031250;28;20075;-73
2022/02/04 04:05:10;;;;;;;25.05;15.70;;;6.50;99.90;;;;;;5026993;28;19917;-73
2022/02/04 04:07:41;;;;;;;26.40;15.13;;;6.50;99.90;;;;;;5029620;28;20037;-73
2022/02/04 04:10:11;;;;;;;26.55;14.60;;;6.50;99.90;;;;;;5029753;28;20037;-73
2022/02/04 04:12:37;;;;;;;27.15;15.48;;;6.50;99.90;;;;;;5030055;28;20048;-73
2022/02/04 04:15:08;;;;;;;;;;;6.50;99.90;;;;;;5030654;28;20029;-73
2022/02/04 04:17:39;;;;;;;21.20;13.43;;;6.50;99.90;;;;;;5030530;28;20015;-73
2022/02/04 04:20:08;;;;;;;22.52;13.00;;;6.50;99.90;;;;;;5029389;28;20033;-73
2022/02/04 04:22:33;;;;;;;23.58;14.57;;;6.50;99.90;;;;;;5030469;28;20036;-73
2022/02/04 04:24:59;;;;;;;;;;;6.50;99.90;;;;;;5030036;28;20292;-73
2022/02/04 04:27:24;;;;;;;18.70;11.38;;;6.50;99.90;;;;;;5031625;28;20172;-73
2022/02/04 04:29:51;;;;;;;21.75;11.80;;;6.60;99.90;;;;;;5029553;28;20037;-73
2022/02/04 04:32:17;;;;;;;19.60;11.38;;;6.50;99.90;;;;;;5029625;28;20038;-73
2022/02/04 04:34:42;;;;;;;;;;;6.50;99.90;;;;;;5029172;28;20079;-73
2022/02/04 04:37:08;;;;;;;19.88;11.60;;;6.50;99.90;;;;;;5029262;28;19921;-73
2022/02/04 04:39:43;;;;;;;;;;;6.50;99.90;;;;;;5030353;28;20033;-73
2022/02/04 04:42:15;;;;;;;18.50;11.65;;;6.50;99.90;;;;;;5030116;28;19921;-73
2022/02/04 05:28:35;;;;;;;15.90;9.75;;;6.60;99.90;;;;;;5028884;28;20028;-75
2022/02/04 05:31:01;;;;;;;13.82;9.50;;;6.60;99.90;;;;;;5025107;28;20243;-75
2022/02/04 05:33:26;;;;;;;;;;;6.60;99.90;;;;;;5027955;28;20096;-74
2022/02/04 05:35:52;;;;;;;17.55;9.48;;;6.60;99.90;;;;;;5028364;28;19995;-75
2022/02/04 05:38:20;;;;;;;12.63;8.23;;;6.60;99.90;;;;;;5025656;28;20032;-74
2022/02/04 05:40:48;;;;;;;13.95;9.10;;;6.70;99.90;;;;;;5027828;28;20087;-74
2022/02/04 05:43:19;;;;;;;18.08;11.07;;;6.70;99.90;;;;;;5025236;28;20025;-73
2022/02/04 05:45:55;;;;;;;17.15;11.40;;;6.60;99.90;;;;;;5027493;28;20025;-76
2022/02/04 05:48:22;;;;;;;17.90;10.43;;;6.70;99.90;;;;;;5027812;28;20029;-75
2022/02/04 05:50:59;;;;;;;16.88;10.70;;;6.70;99.90;;;;;;5027853;28;20025;-75
2022/02/04 05:53:40;;;;;;;14.90;9.98;;;6.60;99.90;;;;;;5027204;28;20030;-73
2022/02/04 05:56:16;;;;;;;15.20;9.82;;;6.70;99.90;;;;;;5028140;28;20037;-74
2022/02/04 05:58:56;;;;;;;15.10;10.00;;;6.70;99.90;;;;;;5024772;28;20516;-73
2022/02/04 06:01:32;;;;;;;13.65;8.93;;;6.70;99.90;;;;;;5026302;28;20383;-73
2022/02/04 06:07:01;;;;;;;14.68;9.80;;;6.70;99.90;;;;;;5026032;28;20088;-74
2022/02/04 06:09:54;;;;;;;17.50;9.82;;;6.70;99.90;;;;;;5025781;28;20088;-72
2022/02/04 06:12:42;;;;;;;15.40;10.30;;;6.70;99.90;;;;;;5026354;28;20543;-75
2022/02/04 06:23:11;;;;;;;13.90;8.80;;;6.80;99.90;;;;;;5028102;28;19939;-74
2022/02/04 06:25:38;;;;;;;;;;;6.80;99.90;;;;;;5028278;28;20457;-74
2022/02/04 06:28:04;;;;;;;16.08;9.35;;;6.80;99.90;;;;;;5026155;28;19913;-74
2022/02/04 06:30:29;;;;;;;;;;;6.80;99.90;;;;;;5028436;28;20121;-75
2022/02/04 06:32:55;;;;;;;18.17;10.07;;;6.80;99.90;;;;;;5027426;28;19928;-74
2022/02/04 06:35:21;;;;;;;13.88;7.90;;;6.80;99.90;;;;;;5026921;28;20433;-74
2022/02/04 06:37:46;;;;;;;15.77;9.93;;;6.80;99.90;;;;;;5026863;28;20048;-75
2022/02/04 06:40:12;;;;;;;;;;;6.80;99.90;;;;;;5029139;28;20020;-74
2022/02/04 06:42:37;;;;;;;18.95;8.48;;;6.80;99.90;;;;;;5027714;28;20354;-74
2022/02/04 06:45:05;;;;;;;18.15;9.30;;;6.80;99.90;;;;;;5028457;28;20021;-74
2022/02/04 06:47:31;;;;;;;16.15;8.00;;;6.80;99.90;;;;;;5028016;28;20116;-75
2022/02/04 06:49:56;;;;;;;;;;;6.90;99.90;;;;;;5023068;28;20128;-77
2022/02/04 06:52:22;;;;;;;13.43;7.45;;;6.90;99.90;;;;;;5022826;28;20281;-73
2022/02/04 06:54:47;;;;;;;13.13;8.38;;;6.90;99.90;;;;;;5025724;28;20486;-75
2022/02/04 06:57:13;;;;;;;13.23;7.40;;;6.90;99.90;;;;;;5027301;28;20418;-74
2022/02/04 06:59:41;;;;;;;12.80;8.65;;;6.90;99.90;;;;;;5026539;28;20410;-75
2022/02/04 07:02:07;;;;;;;13.90;8.18;;;6.90;99.90;;;;;;5029070;28;20025;-76
2022/02/04 07:04:34;;;;;;;;;;;6.90;99.90;;;;;;5030812;28;20079;-76
2022/02/04 07:07:01;;;;;;;;;;;6.90;99.90;;;;;;5030292;28;19913;-79
2022/02/04 07:10:17;;;;;;;12.43;6.65;;;6.90;99.90;;;;;;5029499;28;20003;-78
2022/02/04 07:12:24;;;;;;;10.65;6.70;;;6.90;99.90;;;;;;5028820;28;20032;-79
2022/02/04 07:17:57;;;;;;;12.65;8.32;;;6.90;99.90;;;;;;5029438;28;20132;-71
2022/02/04 07:20:22;;;;;;;10.60;7.05;;;6.90;99.90;;;;;;5030034;28;20021;-71
2022/02/04 07:22:48;;;;;;;;;;;7.00;99.90;;;;;;5030806;28;20112;-70
2022/02/04 07:25:13;;;;;;;16.75;8.43;;;7.00;99.90;;;;;;5029743;28;20361;-70
2022/02/04 07:27:40;;;;;;;15.55;9.32;;;7.00;99.90;;;;;;5029629;28;20034;-71
2022/02/04 07:30:06;;;;;;;18.25;7.65;;;7.00;99.90;;;;;;5030910;28;20481;-70
2022/02/04 07:32:37;;;;;;;;;;;7.10;99.90;;;;;;5029423;28;20520;-69
2022/02/04 07:43:06;;;;;;;13.85;6.90;;;7.20;99.90;;;;;;5028916;28;20033;-71
2022/02/04 07:45:33;;;;;;;;;;;7.20;99.90;;;;;;5029199;28;20037;-70
2022/02/04 07:47:59;;;;;;;10.82;6.32;;;7.20;99.90;;;;;;5030488;28;19916;-70
2022/02/04 07:50:26;;;;;;;;;;;7.30;99.90;;;;;;5030414;28;20087;-71
2022/02/04 07:52:52;;;;;;;8.03;6.00;;;7.30;99.90;;;;;;5030015;28;20285;-70
2022/02/04 07:55:19;;;;;;;7.95;5.75;;;7.30;99.90;;;;;;5030204;28;20342;-69
2022/02/04 07:57:46;;;;;;;7.45;6.07;;;7.30;99.90;;;;;;5029510;28;20029;-70
2022/02/04 08:00:15;;;;;;;10.85;6.28;;;7.30;99.90;;;;;;5024961;28;20386;-70
2022/02/04 08:02:45;;;;;;;13.20;7.35;;;7.30;99.90;;;;;;5030117;28;20022;-71
2022/02/04 08:05:15;;;;;;;7.78;5.80;;;7.30;99.90;;;;;;5029716;28;20444;-72
2022/02/04 08:07:56;;;;;;;7.40;5.53;;;7.30;99.90;;;;;;5029649;28;20029;-72
2022/02/04 08:10:31;;;;;;;9.65;7.05;;;7.30;99.90;;;;;;5027459;28;20509;-70
2022/02/04 08:13:25;;;;;;;7.57;5.20;;;7.30;99.90;;;;;;5027140;28;20457;-70
2022/02/04 08:29:06;;;;;;;13.18;8.57;;;7.40;99.90;;;;;;5027850;28;20032;-72
2022/02/04 08:50:44;;;;;;;9.90;5.13;;;7.60;99.90;;;;;;5029391;28;20041;-70
2022/02/04 08:56:05;;;;;;;7.25;4.90;;;7.60;99.90;;;;;;4999483;28;20034;-81
2022/02/04 08:58:38;;;;;;;;;;;7.70;99.90;;;;;;5030300;28;20067;-80
2022/02/04 09:01:17;;;;;;;7.70;4.72;;;7.70;99.90;;;;;;5028163;28;20111;-76
2022/02/04 09:06:18;;;;;;;6.65;4.88;;;7.80;99.90;;;;;;5028234;28;20301;-77
2022/02/04 09:08:57;;;;;;;8.65;5.90;;;7.80;99.90;;;;;;5027277;28;20048;-77
2022/02/04 09:11:38;;;;;;;7.78;5.10;;;7.90;99.90;;;;;;5028153;28;20371;-77
2022/02/04 09:17:00;;;;;;;9.07;5.43;;;7.90;99.90;;;;;;5027944;28;20040;-73
2022/02/04 09:19:29;;;;;;;8.07;4.97;;;8.00;99.90;;;;;;5028546;28;20028;-74
2022/02/04 09:24:24;;;;;;;6.95;4.90;;;8.00;99.90;;;;;;5027569;28;20021;-73
2022/02/04 09:26:51;;;;;;;9.63;4.50;;;8.00;99.90;;;;;;5027322;28;20530;-74
2022/02/04 09:29:17;;;;;;;13.13;5.38;;;8.00;99.90;;;;;;5028929;28;20140;-73
2022/02/04 09:31:43;;;;;;;;;;;8.00;99.90;;;;;;5027034;28;20549;-73
2022/02/04 09:34:09;;;;;;;6.75;3.92;;;8.10;99.90;;;;;;5026922;28;19917;-73
2022/02/04 09:36:35;;;;;;;10.32;4.95;;;8.10;99.90;;;;;;5028804;28;20497;-74
2022/02/04 09:39:01;;;;;;;;;;;8.20;99.90;;;;;;5026084;28;20045;-74
2022/02/04 09:41:27;;;;;;;6.18;4.05;;;8.20;99.90;;;;;;5025689;28;19921;-75
2022/02/04 09:43:53;;;;;;;;;;;8.20;99.90;;;;;;5028553;28;20033;-76
2022/02/04 09:46:19;;;;;;;6.85;3.72;;;8.20;99.90;;;;;;5028318;28;20007;-76
2022/02/04 09:48:49;;;;;;;;;;;8.30;99.90;;;;;;5028327;28;20033;-77
2022/02/04 09:51:19;;;;;;;5.90;3.92;;;8.30;99.90;;;;;;5028359;28;19981;-76
2022/02/04 10:05:52;;;;;;;8.32;4.13;;;8.60;99.90;;;;;;5027914;28;20402;-75
2022/02/04 10:13:17;;;;;;;18.35;6.00;;;8.60;99.90;;;;;;5027826;28;20037;-75
2022/02/04 10:18:28;;;;;;;12.80;5.85;;;8.50;99.90;;;;;;5027069;28;20033;-74
2022/02/04 10:21:05;;;;;;;14.48;5.70;;;8.50;99.90;;;;;;5027084;28;20108;-73
2022/02/04 10:23:47;;;;;;;;;;;8.50;99.90;;;;;;5027984;28;20031;-74
2022/02/04 10:26:13;;;;;;;7.00;3.97;;;8.50;99.90;;;;;;5027273;28;19909;-74
2022/02/04 10:28:39;;;;;;;9.63;5.18;;;8.50;99.90;;;;;;5026716;28;20152;-74
2022/02/04 10:31:25;;;;;;;;;;;8.60;99.90;;;;;;5026053;28;20390;-72
2022/02/04 10:34:12;;;;;;;6.75;3.95;;;8.50;99.90;;;;;;5027877;28;19909;-72
2022/02/04 10:36:58;;;;;;;5.57;4.30;;;8.50;99.90;;;;;;5025825;28;20560;-75
2022/02/04 10:50:45;;;;;;;6.93;4.25;;;8.70;99.90;;;;;;5028004;28;20109;-75
2022/02/04 10:56:06;;;;;;;8.93;4.82;;;8.80;99.90;;;;;;5026587;28;20140;-72
2022/02/04 11:01:28;;;;;;;6.95;4.43;;;8.80;99.90;;;;;;5025100;28;20421;-73
2022/02/04 11:03:58;;;;;;;6.28;3.97;;;8.80;99.90;;;;;;5025417;28;20026;-72
2022/02/04 11:06:45;;;;;;;6.90;5.07;;;8.80;99.90;;;;;;5027262;28;20022;-73
2022/02/04 11:09:29;;;;;;;5.80;3.58;;;8.90;99.90;;;;;;5020593;28;20466;-72
2022/02/04 11:21:47;;;;;;;7.35;3.95;;;8.90;99.90;;;;;;5024280;28;20021;-75
2022/02/04 11:31:45;;;;;;;9.05;2.53;;;9.10;99.90;;;;;;5027675;28;20037;-75
2022/02/04 11:34:20;;;;;;;3.45;2.28;;;9.10;99.90;;;;;;5026941;28;20029;-75
2022/02/04 11:43:31;;;;;;;4.45;2.58;;;9.20;99.90;;;;;;5026899;28;20512;-75
2022/02/04 11:49:02;;;;;;;6.05;2.58;;;9.30;99.90;;;;;;5029814;28;20048;-75
2022/02/04 11:51:31;;;;;;;5.63;2.15;;;9.30;99.90;;;;;;5031775;28;20506;-76
2022/02/04 11:54:30;;;;;;;3.28;2.65;;;9.40;99.90;;;;;;5029988;28;20091;-76
2022/02/04 11:57:05;;;;;;;4.00;2.03;;;9.40;99.90;;;;;;5027022;28;20030;-76
2022/02/04 11:59:36;;;;;;;4.13;1.80;;;9.40;99.90;;;;;;5026798;28;20040;-75
2022/02/04 12:02:22;;;;;;;6.75;2.72;;;9.50;99.90;;;;;;5028003;28;20508;-76
2022/02/04 12:04:48;;;;;;;3.17;1.73;;;9.50;99.90;;;;;;5029675;28;20402;-74
2022/02/04 12:07:36;;;;;;;4.65;2.28;;;9.40;99.90;;;;;;5028763;28;20287;-73
2022/02/04 12:10:03;;;;;;;7.45;1.83;;;9.40;99.90;;;;;;5026111;28;20099;-74
2022/02/04 12:17:54;;;;;;;2.75;1.67;;;9.40;99.90;;;;;;5029828;28;20047;-74
2022/02/04 12:20:53;;;;;;;2.40;1.23;;;9.30;99.90;;;;;;5021279;28;20120;-74
2022/02/04 12:23:28;;;;;;;1.77;1.10;;;9.30;99.90;;;;;;5030096;28;20418;-74
2022/02/04 12:26:01;;;;;;;2.17;0.88;;;9.30;99.90;;;;;;5028487;28;20482;-74
2022/02/04 12:28:56;;;;;;;7.07;1.42;;;9.30;99.90;;;;;;5029817;28;20033;-76
2022/02/04 12:31:40;;;;;;;4.90;1.05;;;9.30;99.90;;;;;;5027199;28;20021;-76
2022/02/04 12:34:14;;;;;;;0.90;0.80;;;9.30;99.90;;;;;;5028666;28;20056;-76
2022/02/04 12:36:50;;;;;;;2.33;0.98;;;9.30;99.90;;;;;;5027796;28;20030;-76
2022/02/04 12:39:22;;;;;;;1.48;0.88;;;9.30;99.90;;;;;;5030297;28;20026;-75
2022/02/04 12:41:55;;;;;;;1.08;0.70;;;9.30;99.90;;;;;;5028261;28;20029;-76
2022/02/04 12:44:25;;;;;;;5.18;0.90;;;9.20;99.90;;;;;;5030243;28;20546;-77
2022/02/04 12:46:55;;;;;;;5.32;1.10;;;9.10;99.90;;;;;;5030381;28;20517;-76
2022/02/04 12:49:27;;;;;;;3.38;1.27;;;9.00;99.90;;;;;;5028659;28;20474;-75
2022/02/04 12:54:41;;;;;;;1.70;0.93;;;9.00;99.90;;;;;;5029863;28;20048;-75
2022/02/04 13:10:27;;;;;;;4.47;1.67;;;9.20;99.90;;;;;;5027923;28;20459;-73
2022/02/04 13:12:59;;;;;;;6.55;3.47;;;9.20;99.90;;;;;;5027359;28;20052;-73
2022/02/04 13:15:31;;;;;;;5.65;3.08;;;9.30;99.90;;;;;;5028340;28;20029;-72
2022/02/04 13:17:57;;;;;;;4.32;2.25;;;9.40;99.90;;;;;;5028208;28;20184;-73
2022/02/04 13:20:24;;;;;;;;;;;9.50;99.90;;;;;;5026393;28;20049;-73
2022/02/04 13:22:54;;;;;;;4.60;2.13;;;9.50;99.90;;;;;;5027811;28;19908;-74
2022/02/04 13:25:29;;;;;;;3.55;1.60;;;9.60;99.90;;;;;;5027423;28;20425;-74
2022/02/04 13:27:59;;;;;;;3.40;1.20;;;9.70;99.90;;;;;;5027577;28;20038;-71
2022/02/04 13:30:26;;;;;;;8.80;1.30;;;9.70;99.90;;;;;;5028366;28;20029;-73
2022/02/04 13:32:51;;;;;;;1.65;0.88;;;9.70;99.90;;;;;;5026226;28;20037;-73
2022/02/04 13:35:24;;;;;;;;;;;9.60;99.90;;;;;;5028012;28;20057;-73
2022/02/04 13:37:52;;;;;;;12.70;1.73;;;9.60;99.90;;;;;;5028145;28;20336;-74
2022/02/04 13:40:25;;;;;;;3.72;1.02;;;9.60;99.90;;;;;;5025863;28;20033;-72
2022/02/04 13:42:54;;;;;;;5.50;1.30;;;9.50;99.90;;;;;;5026539;28;20155;-72
2022/02/04 13:45:27;;;;;;;3.67;1.15;;;9.50;99.90;;;;;;5027116;28;20033;-72
2022/02/04 13:48:05;;;;;;;3.38;1.10;;;9.50;99.90;;;;;;5028947;28;20521;-72
2022/02/04 13:50:38;;;;;;;2.03;1.35;;;9.50;99.90;;;;;;5027328;28;20029;-72
2022/02/04 13:53:31;;;;;;;4.93;0.90;;;9.40;99.90;;;;;;5027740;28;20088;-72
2022/02/04 13:56:13;;;;;;;5.00;0.70;;;9.40;99.90;;;;;;5026193;28;20167;-72
2022/02/04 13:58:54;;;;;;;6.70;1.67;;;9.40;99.90;;;;;;5028360;28;20132;-73
2022/02/04 14:01:33;;;;;;;1.08;0.65;;;9.40;99.90;;;;;;5027071;28;20028;-73
2022/02/04 14:04:01;;;;;;;5.80;1.48;;;9.40;99.90;;;;;;5028653;28;20500;-73
2022/02/04 14:06:30;;;;;;;4.55;1.50;;;9.40;99.90;;;;;;5028595;28;20026;-72
2022/02/04 14:08:59;;;;;;;2.50;1.48;;;9.40;99.90;;;;;;5027202;28;20022;-73
2022/02/04 14:11:39;;;;;;;4.03;1.98;;;9.40;99.90;;;;;;5026135;28;20028;-73
2022/02/04 14:14:10;;;;;;;5.50;2.13;;;9.40;99.90;;;;;;5026425;28;20083;-72
2022/02/04 14:16:37;;;;;;;4.30;1.67;;;9.30;99.90;;;;;;5026834;28;20040;-73
2022/02/04 14:19:04;;;;;;;3.35;1.45;;;9.40;99.90;;;;;;5027376;28;20106;-73
2022/02/04 14:21:30;;;;;;;7.82;1.85;;;9.30;99.90;;;;;;5028264;28;20390;-72
2022/02/04 14:23:58;;;;;;;;;;;9.30;99.90;;;;;;5028573;28;20026;-72
2022/02/04 14:26:28;;;;;;;7.60;1.75;;;9.30;99.90;;;;;;5029443;28;19908;-72
2022/02/04 14:29:12;;;;;;;4.38;0.90;;;9.30;99.90;;;;;;5027391;28;20067;-72
2022/02/04 14:31:53;;;;;;;3.90;1.00;;;9.20;99.90;;;;;;5027671;28;20033;-72
2022/02/04 14:59:21;;;;;;;2.70;0.80;;;8.90;99.90;;;;;;5024738;28;20080;-75
2022/02/04 15:01:48;;;;;;;1.73;1.02;;;8.80;99.90;;;;;;5025833;28;20474;-75
2022/02/04 15:04:24;;;;;;;2.28;1.52;;;8.70;99.90;;;;;;5024522;28;20367;-75
2022/02/04 15:06:58;;;;;;;1.80;0.98;;;8.70;99.90;;;;;;5026358;28;20030;-75
2022/02/04 15:09:23;;;;;;;2.65;1.05;;;8.70;99.90;;;;;;5025233;28;20029;-72
2022/02/04 15:11:49;;;;;;;;;;;8.60;99.90;;;;;;5026380;28;20394;-74
2022/02/04 15:14:17;;;;;;;1.30;0.80;;;8.50;99.90;;;;;;5025181;28;19920;-74
2022/02/04 15:16:44;;;;;;;1.20;0.85;;;8.50;99.90;;;;;;5025654;28;20083;-75
2022/02/04 15:19:10;;;;;;;1.85;0.98;;;8.50;99.90;;;;;;5022609;28;20018;-75
2022/02/04 15:21:36;;;;;;;;;;;8.60;99.90;;;;;;5023690;28;20056;-75
2022/02/04 15:24:03;;;;;;;2.28;0.93;;;8.60;99.90;;;;;;5027915;28;19924;-76
2022/02/04 15:26:30;;;;;;;2.47;0.70;;;8.60;99.90;;;;;;5029711;28;20401;-76
2022/02/04 15:29:03;;;;;;;3.55;0.85;;;8.50;99.90;;;;;;5026407;28;20128;-75
2022/02/04 15:31:41;;;;;;;0.93;0.52;;;8.50;99.90;;;;;;5029505;28;20013;-75
2022/02/04 15:34:06;;;;;;;3.58;1.90;;;8.50;99.90;;;;;;5027935;28;20524;-75
2022/02/04 15:36:41;;;;;;;;;;;8.40;99.90;;;;;;5026411;28;20449;-75
2022/02/04 15:39:11;;;;;;;6.25;1.45;;;8.40;99.90;;;;;;5026496;28;20003;-75
2022/02/04 15:41:39;;;;;;;2.60;1.65;;;8.40;99.90;;;;;;5027724;28;20124;-75
2022/02/04 15:44:14;;;;;;;1.60;0.90;;;8.40;99.90;;;;;;5026131;28;20025;-75
2022/02/04 15:49:44;;;;;;;2.30;0.57;;;8.40;99.90;;;;;;5026168;28;20033;-76
2022/02/04 16:00:11;;;;;;;1.85;1.08;;;8.30;99.90;;;;;;5026306;28;20026;-75
2022/02/04 16:05:13;;;;;;;2.40;0.63;;;8.20;99.90;;;;;;5027545;28;20041;-77
2022/02/04 16:07:40;;;;;;;1.33;0.75;;;8.20;99.90;;;;;;5027430;28;20045;-75
2022/02/04 16:13:05;;;;;;;1.60;0.90;;;8.10;99.90;;;;;;5028578;28;20485;-77
2022/02/04 16:15:46;;;;;;;5.40;2.03;;;8.10;99.90;;;;;;5028210;28;20025;-73
2022/02/04 16:18:18;;;;;;;3.15;1.60;;;8.10;99.90;;;;;;5025888;28;20418;-74
2022/02/04 16:23:55;;;;;;;1.92;1.42;;;8.00;99.90;;;;;;5027683;28;20032;-73
2022/02/04 16:28:39;;;;;;;3.30;1.58;;;8.00;99.90;;;;;;5027573;28;20037;-73
2022/02/04 16:31:06;;;;;;;5.22;1.75;;;8.00;99.90;;;;;;5027321;28;20028;-74
2022/02/04 16:33:32;;;;;;;4.80;1.73;;;8.00;99.90;;;;;;5026362;28;20511;-73
2022/02/04 16:36:03;;;;;;;;;;;7.90;99.90;;;;;;5025952;28;20044;-74
2022/02/04 16:38:30;;;;;;;4.55;1.80;;;7.90;99.90;;;;;;5025989;28;19920;-73
2022/02/04 16:41:03;;;;;;;2.60;1.80;;;7.90;99.90;;;;;;5025266;28;20119;-73
2022/02/04 16:43:29;;;;;;;2.63;1.58;;;7.90;99.90;;;;;;5025224;28;20025;-73
2022/02/04 16:45:55;;;;;;;3.22;1.30;;;7.90;99.90;;;;;;5022861;28;20139;-73
2022/02/04 16:48:21;;;;;;;;;;;7.90;99.90;;;;;;5024830;28;20032;-74
2022/02/04 16:50:49;;;;;;;4.95;2.58;;;7.90;99.90;;;;;;5024548;28;19923;-74
2022/02/04 16:53:15;;;;;;;13.90;5.45;;;7.90;99.90;;;;;;5026647;28;20108;-73
2022/02/04 16:55:40;;;;;;;;;;;7.90;99.90;;;;;;5029006;28;20029;-73
2022/02/04 16:58:06;;;;;;;5.78;2.38;;;7.90;99.90;;;;;;5025925;28;19951;-73
2022/02/04 17:00:32;;;;;;;8.27;2.50;;;7.90;99.90;;;;;;5025645;28;20314;-73
2022/02/04 17:03:00;;;;;;;;;;;7.90;99.90;;;;;;5027276;28;20120;-74
2022/02/04 17:05:35;;;;;;;3.67;1.70;;;7.90;99.90;;;;;;5026948;28;20416;-74
2022/02/04 17:08:07;;;;;;;4.72;1.60;;;7.90;99.90;;;;;;5025240;28;20040;-74
2022/02/04 17:10:33;;;;;;;3.08;0.98;;;7.80;99.90;;;;;;5025293;28;20049;-74
2022/02/04 17:13:01;;;;;;;2.17;1.35;;;7.80;99.90;;;;;;5025131;28;20445;-75
2022/02/04 17:15:34;;;;;;;2.90;1.20;;;7.90;99.90;;;;;;5024377;28;20418;-73
2022/02/04 17:18:02;;;;;;;1.95;1.02;;;7.90;99.90;;;;;;5026874;28;20037;-75
2022/02/04 17:20:28;;;;;;;2.00;1.50;;;7.90;99.90;;;;;;5028341;28;20079;-76
2022/02/04 17:22:56;;;;;;;5.43;1.83;;;7.90;99.90;;;;;;5024067;28;20033;-76
2022/02/04 17:25:28;;;;;;;3.67;1.23;;;7.90;99.90;;;;;;5027603;28;20040;-77
2022/02/04 17:27:56;;;;;;;5.35;1.60;;;7.90;99.90;;;;;;5026209;28;20044;-77
2022/02/04 17:30:23;;;;;;;2.90;2.17;;;7.90;99.90;;;;;;5025750;28;20029;-79
2022/02/04 17:32:49;;;;;;;3.38;2.05;;;7.90;99.90;;;;;;5027939;28;20045;-77
2022/02/04 17:35:17;;;;;;;2.88;1.45;;;7.90;99.90;;;;;;5026002;28;20065;-76
2022/02/04 17:37:43;;;;;;;7.68;1.38;;;7.80;99.90;;;;;;5026083;28;20030;-75
2022/02/04 17:40:12;;;;;;;4.68;2.00;;;7.80;99.90;;;;;;5022594;28;20442;-76
2022/02/04 17:42:40;;;;;;;5.72;1.40;;;7.80;99.90;;;;;;5025459;28;20138;-80
2022/02/04 17:45:10;;;;;;;1.80;1.02;;;8.00;99.90;;;;;;5024410;28;20053;-77
2022/02/04 17:47:39;;;;;;;5.18;1.00;;;8.70;99.90;;;;;;5026587;28;20029;-78
2022/02/04 17:50:15;;;;;;;3.03;0.88;;;8.80;99.90;;;;;;5025596;28;20402;-79
2022/02/04 17:52:45;;;;;;;0.88;0.60;;;8.60;99.90;;;;;;5025302;28;20033;-78
2022/02/04 17:55:16;;;;;;;1.25;0.68;;;8.30;99.90;;;;;;5023323;28;20037;-78
2022/02/04 17:57:52;;;;;;;2.33;0.85;;;8.20;99.90;;;;;;5022279;28;20509;-78
2022/02/04 18:03:11;;;;;;;1.48;0.60;;;7.90;99.90;;;;;;5026943;28;20094;-78
2022/02/04 18:05:55;;;;;;;5.57;0.70;;;7.90;99.90;;;;;;5027076;28;20199;-78
2022/02/04 18:08:21;;;;;;;4.53;0.70;;;7.90;99.90;;;;;;5026219;28;20454;-78
2022/02/04 18:10:46;;;;;;;;;;;7.80;99.90;;;;;;5025094;28;20030;-78
2022/02/04 18:13:12;;;;;;;1.25;0.47;;;7.80;99.90;;;;;;5025013;28;20055;-78
2022/02/04 18:15:43;;;;;;;;;;;7.80;99.90;;;;;;5025729;28;20548;-78
2022/02/04 18:18:10;;;;;;;2.35;0.68;;;7.80;99.90;;;;;;5024469;28;19981;-78
2022/02/04 18:20:36;;;;;;;4.47;0.57;;;7.80;99.90;;;;;;5022784;28;20112;-78
2022/02/04 18:23:02;;;;;;;1.10;0.52;;;7.80;99.90;;;;;;5026239;28;20026;-78
2022/02/04 18:25:30;;;;;;;;;;;7.80;99.90;;;;;;5027242;28;20028;-78
2022/02/04 18:27:56;;;;;;;0.85;0.50;;;7.80;99.90;;;;;;5026088;28;20373;-77
2022/02/04 18:30:25;;;;;;;4.00;0.70;;;7.80;99.90;;;;;;5026651;28;20453;-78
2022/02/04 18:32:50;;;;;;;4.28;0.55;;;7.80;99.90;;;;;;5022761;28;20139;-78
2022/02/04 18:35:17;;;;;;;;;;;7.80;99.90;;;;;;5023810;28;20482;-79
2022/02/04 18:37:51;;;;;;;6.75;0.73;;;7.70;99.90;;;;;;5025829;28;19988;-78
2022/02/04 18:40:55;;;;;;;3.15;1.13;;;7.70;99.90;;;;;;5027472;28;20075;-78
2022/02/04 18:43:26;;;;;;;;;;;7.60;99.90;;;;;;5024262;28;20116;-78
2022/02/04 18:46:32;;;;;;;2.53;0.82;;;7.60;99.90;;;;;;5025256;28;19955;-78
2022/02/04 18:49:00;;;;;;;0.50;0.50;;;7.50;99.90;;;;;;5023669;28;20028;-78
2022/02/04 18:57:07;;;;;;;2.50;0.60;;;7.40;99.90;;;;;;5023516;28;20028;-78
2022/02/04 18:59:37;;;;;;;1.48;0.82;;;7.40;99.90;;;;;;5028713;28;20029;-77
2022/02/04 19:02:02;;;;;;;1.17;0.50;;;7.40;99.90;;;;;;5030687;28;20029;-77
2022/02/04 19:04:41;;;;;;;;;;;7.40;99.90;;;;;;5030821;28;20477;-77
2022/02/04 19:07:12;;;;;;;1.42;0.40;;;7.40;99.90;;;;;;5029521;28;19992;-77